sensor_id;sensor_type;location;lat;lon;timestamp;temperature;humidity
25616;DHT22;13482;48.234;13.006;2023-04-23T00:01:26;13.10;59.50
25616;DHT22;13482;48.234;13.006;2023-04-23T00:03:57;13.10;59.60
25616;DHT22;13482;48.234;13.006;2023-04-23T00:06:24;13.10;59.80
25616;DHT22;13482;48.234;13.006;2023-04-23T00:08:53;13.10;59.80
25616;DHT22;13482;48.234;13.006;2023-04-23T00:11:21;13.10;59.90
25616;DHT22;13482;48.234;13.006;2023-04-23T00:13:48;13.10;59.80
25616;DHT22;13482;48.234;13.006;2023-04-23T00:16:18;13.10;59.70
25616;DHT22;13482;48.234;13.006;2023-04-23T00:18:46;13.10;59.90
25616;DHT22;13482;48.234;13.006;2023-04-23T00:21:14;13.10;59.80
25616;DHT22;13482;48.234;13.006;2023-04-23T00:23:41;13.10;59.80
25616;DHT22;13482;48.234;13.006;2023-04-23T00:26:08;13.10;60.00
25616;DHT22;13482;48.234;13.006;2023-04-23T00:28:35;13.10;60.20
25616;DHT22;13482;48.234;13.006;2023-04-23T00:31:02;13.10;60.20
25616;DHT22;13482;48.234;13.006;2023-04-23T00:33:29;13.10;60.20
25616;DHT22;13482;48.234;13.006;2023-04-23T00:35:56;13.10;60.40
25616;DHT22;13482;48.234;13.006;2023-04-23T00:38:23;13.10;60.40
25616;DHT22;13482;48.234;13.006;2023-04-23T00:40:52;13.10;60.40
25616;DHT22;13482;48.234;13.006;2023-04-23T00:43:19;13.10;60.50
25616;DHT22;13482;48.234;13.006;2023-04-23T00:45:47;13.10;60.60
25616;DHT22;13482;48.234;13.006;2023-04-23T00:48:15;13.20;60.70
25616;DHT22;13482;48.234;13.006;2023-04-23T00:50:42;13.20;61.00
25616;DHT22;13482;48.234;13.006;2023-04-23T00:53:09;13.20;61.00
25616;DHT22;13482;48.234;13.006;2023-04-23T00:55:36;13.20;61.00
25616;DHT22;13482;48.234;13.006;2023-04-23T00:58:04;13.30;60.90
25616;DHT22;13482;48.234;13.006;2023-04-23T01:00:38;13.30;60.90
25616;DHT22;13482;48.234;13.006;2023-04-23T01:03:12;13.40;61.20
25616;DHT22;13482;48.234;13.006;2023-04-23T01:05:40;13.40;61.10
25616;DHT22;13482;48.234;13.006;2023-04-23T01:08:10;13.40;61.40
25616;DHT22;13482;48.234;13.006;2023-04-23T01:10:44;13.40;61.30
25616;DHT22;13482;48.234;13.006;2023-04-23T01:13:15;13.40;61.40
25616;DHT22;13482;48.234;13.006;2023-04-23T01:15:43;13.50;61.60
25616;DHT22;13482;48.234;13.006;2023-04-23T01:18:11;13.40;61.50
25616;DHT22;13482;48.234;13.006;2023-04-23T01:20:40;13.40;61.70
25616;DHT22;13482;48.234;13.006;2023-04-23T01:23:09;13.40;61.80
25616;DHT22;13482;48.234;13.006;2023-04-23T01:25:36;13.40;61.80
25616;DHT22;13482;48.234;13.006;2023-04-23T01:28:04;13.40;61.80
25616;DHT22;13482;48.234;13.006;2023-04-23T01:30:35;13.40;61.80
25616;DHT22;13482;48.234;13.006;2023-04-23T01:33:03;13.40;62.00
25616;DHT22;13482;48.234;13.006;2023-04-23T01:35:32;13.40;62.00
25616;DHT22;13482;48.234;13.006;2023-04-23T01:38:08;13.40;62.10
25616;DHT22;13482;48.234;13.006;2023-04-23T01:40:37;13.50;62.10
25616;DHT22;13482;48.234;13.006;2023-04-23T01:43:05;13.50;61.70
25616;DHT22;13482;48.234;13.006;2023-04-23T01:45:32;13.50;61.80
25616;DHT22;13482;48.234;13.006;2023-04-23T01:48:00;13.50;61.80
25616;DHT22;13482;48.234;13.006;2023-04-23T01:50:27;13.50;62.10
25616;DHT22;13482;48.234;13.006;2023-04-23T01:52:55;13.50;62.20
25616;DHT22;13482;48.234;13.006;2023-04-23T01:55:22;13.50;62.00
25616;DHT22;13482;48.234;13.006;2023-04-23T01:57:50;13.50;61.80
25616;DHT22;13482;48.234;13.006;2023-04-23T02:00:17;13.60;61.60
25616;DHT22;13482;48.234;13.006;2023-04-23T02:02:45;13.60;61.70
25616;DHT22;13482;48.234;13.006;2023-04-23T02:05:16;13.60;61.80
25616;DHT22;13482;48.234;13.006;2023-04-23T02:07:48;13.60;62.00
25616;DHT22;13482;48.234;13.006;2023-04-23T02:10:16;13.60;62.00
25616;DHT22;13482;48.234;13.006;2023-04-23T02:12:46;13.60;62.00
25616;DHT22;13482;48.234;13.006;2023-04-23T02:15:14;13.70;62.10
25616;DHT22;13482;48.234;13.006;2023-04-23T02:17:42;13.60;62.00
25616;DHT22;13482;48.234;13.006;2023-04-23T02:20:10;13.70;62.00
25616;DHT22;13482;48.234;13.006;2023-04-23T02:22:39;13.60;62.10
25616;DHT22;13482;48.234;13.006;2023-04-23T02:25:07;13.60;62.20
25616;DHT22;13482;48.234;13.006;2023-04-23T02:27:35;13.60;62.20
25616;DHT22;13482;48.234;13.006;2023-04-23T02:30:03;13.60;62.30
25616;DHT22;13482;48.234;13.006;2023-04-23T02:32:30;13.60;62.40
25616;DHT22;13482;48.234;13.006;2023-04-23T02:34:57;13.60;62.40
25616;DHT22;13482;48.234;13.006;2023-04-23T02:37:25;13.60;62.40
25616;DHT22;13482;48.234;13.006;2023-04-23T02:39:53;13.60;62.40
25616;DHT22;13482;48.234;13.006;2023-04-23T02:42:20;13.60;62.40
25616;DHT22;13482;48.234;13.006;2023-04-23T02:44:47;13.60;62.40
25616;DHT22;13482;48.234;13.006;2023-04-23T02:47:14;13.60;62.40
25616;DHT22;13482;48.234;13.006;2023-04-23T02:49:41;13.50;62.50
25616;DHT22;13482;48.234;13.006;2023-04-23T02:52:09;13.50;62.50
25616;DHT22;13482;48.234;13.006;2023-04-23T02:54:37;13.60;62.60
25616;DHT22;13482;48.234;13.006;2023-04-23T02:57:05;13.50;62.70
25616;DHT22;13482;48.234;13.006;2023-04-23T02:59:32;13.50;62.70
25616;DHT22;13482;48.234;13.006;2023-04-23T03:01:59;13.60;62.80
25616;DHT22;13482;48.234;13.006;2023-04-23T03:04:27;13.60;62.80
25616;DHT22;13482;48.234;13.006;2023-04-23T03:06:54;13.50;63.00
25616;DHT22;13482;48.234;13.006;2023-04-23T03:09:21;13.60;63.00
25616;DHT22;13482;48.234;13.006;2023-04-23T03:11:48;13.50;63.10
25616;DHT22;13482;48.234;13.006;2023-04-23T03:14:15;13.50;63.10
25616;DHT22;13482;48.234;13.006;2023-04-23T03:16:42;13.50;63.10
25616;DHT22;13482;48.234;13.006;2023-04-23T03:19:10;13.50;63.30
25616;DHT22;13482;48.234;13.006;2023-04-23T03:21:37;13.50;63.30
25616;DHT22;13482;48.234;13.006;2023-04-23T03:24:04;13.50;63.40
25616;DHT22;13482;48.234;13.006;2023-04-23T03:26:31;13.50;63.30
25616;DHT22;13482;48.234;13.006;2023-04-23T03:28:58;13.50;63.30
25616;DHT22;13482;48.234;13.006;2023-04-23T03:31:25;13.50;63.30
25616;DHT22;13482;48.234;13.006;2023-04-23T03:33:52;13.50;63.40
25616;DHT22;13482;48.234;13.006;2023-04-23T03:36:20;13.50;63.50
25616;DHT22;13482;48.234;13.006;2023-04-23T03:38:47;13.50;63.30
25616;DHT22;13482;48.234;13.006;2023-04-23T03:41:14;13.50;63.20
25616;DHT22;13482;48.234;13.006;2023-04-23T03:43:41;13.60;63.10
25616;DHT22;13482;48.234;13.006;2023-04-23T03:46:08;13.60;63.20
25616;DHT22;13482;48.234;13.006;2023-04-23T03:48:35;13.60;63.20
25616;DHT22;13482;48.234;13.006;2023-04-23T03:51:03;13.60;63.10
25616;DHT22;13482;48.234;13.006;2023-04-23T03:53:30;13.60;63.10
25616;DHT22;13482;48.234;13.006;2023-04-23T03:55:57;13.60;63.20
25616;DHT22;13482;48.234;13.006;2023-04-23T03:58:24;13.60;63.20
25616;DHT22;13482;48.234;13.006;2023-04-23T04:00:51;13.60;63.30
25616;DHT22;13482;48.234;13.006;2023-04-23T04:03:18;13.70;63.40
25616;DHT22;13482;48.234;13.006;2023-04-23T04:05:46;13.70;63.60
25616;DHT22;13482;48.234;13.006;2023-04-23T04:08:13;13.70;63.40
25616;DHT22;13482;48.234;13.006;2023-04-23T04:10:40;13.70;63.60
25616;DHT22;13482;48.234;13.006;2023-04-23T04:13:07;13.70;63.80
25616;DHT22;13482;48.234;13.006;2023-04-23T04:15:35;13.70;63.80
25616;DHT22;13482;48.234;13.006;2023-04-23T04:18:02;13.70;64.00
25616;DHT22;13482;48.234;13.006;2023-04-23T04:20:29;13.70;64.00
25616;DHT22;13482;48.234;13.006;2023-04-23T04:22:56;13.70;64.10
25616;DHT22;13482;48.234;13.006;2023-04-23T04:25:24;13.70;64.10
25616;DHT22;13482;48.234;13.006;2023-04-23T04:27:51;13.70;64.20
25616;DHT22;13482;48.234;13.006;2023-04-23T04:30:18;13.70;64.10
25616;DHT22;13482;48.234;13.006;2023-04-23T04:32:45;13.70;63.80
25616;DHT22;13482;48.234;13.006;2023-04-23T04:35:12;13.70;63.80
25616;DHT22;13482;48.234;13.006;2023-04-23T04:37:40;13.80;63.70
25616;DHT22;13482;48.234;13.006;2023-04-23T04:40:09;13.80;63.80
25616;DHT22;13482;48.234;13.006;2023-04-23T04:42:37;13.80;63.90
25616;DHT22;13482;48.234;13.006;2023-04-23T04:45:05;13.80;64.10
25616;DHT22;13482;48.234;13.006;2023-04-23T04:47:34;13.80;64.30
25616;DHT22;13482;48.234;13.006;2023-04-23T04:50:02;13.80;64.50
25616;DHT22;13482;48.234;13.006;2023-04-23T04:52:30;13.80;64.60
25616;DHT22;13482;48.234;13.006;2023-04-23T04:54:57;13.90;64.70
25616;DHT22;13482;48.234;13.006;2023-04-23T04:57:24;13.90;64.80
25616;DHT22;13482;48.234;13.006;2023-04-23T04:59:52;13.90;65.00
25616;DHT22;13482;48.234;13.006;2023-04-23T05:02:19;13.90;65.00
25616;DHT22;13482;48.234;13.006;2023-04-23T05:04:49;13.90;65.00
25616;DHT22;13482;48.234;13.006;2023-04-23T05:07:16;13.90;65.00
25616;DHT22;13482;48.234;13.006;2023-04-23T05:09:43;13.90;65.10
25616;DHT22;13482;48.234;13.006;2023-04-23T05:12:10;13.90;65.20
25616;DHT22;13482;48.234;13.006;2023-04-23T05:14:38;14.00;65.40
25616;DHT22;13482;48.234;13.006;2023-04-23T05:17:05;14.00;65.40
25616;DHT22;13482;48.234;13.006;2023-04-23T05:19:32;14.10;65.50
25616;DHT22;13482;48.234;13.006;2023-04-23T05:22:00;14.10;65.70
25616;DHT22;13482;48.234;13.006;2023-04-23T05:24:29;14.20;65.70
25616;DHT22;13482;48.234;13.006;2023-04-23T05:26:56;14.20;65.70
25616;DHT22;13482;48.234;13.006;2023-04-23T05:29:23;14.30;65.80
25616;DHT22;13482;48.234;13.006;2023-04-23T05:31:50;14.40;65.90
25616;DHT22;13482;48.234;13.006;2023-04-23T05:34:17;14.40;65.90
25616;DHT22;13482;48.234;13.006;2023-04-23T05:36:44;14.50;66.00
25616;DHT22;13482;48.234;13.006;2023-04-23T05:39:12;14.60;66.10
25616;DHT22;13482;48.234;13.006;2023-04-23T05:41:39;14.70;66.10
25616;DHT22;13482;48.234;13.006;2023-04-23T05:44:06;14.80;66.30
25616;DHT22;13482;48.234;13.006;2023-04-23T05:46:33;14.90;66.10
25616;DHT22;13482;48.234;13.006;2023-04-23T05:49:01;15.00;66.20
25616;DHT22;13482;48.234;13.006;2023-04-23T05:51:28;15.00;66.00
25616;DHT22;13482;48.234;13.006;2023-04-23T05:53:55;15.10;65.90
25616;DHT22;13482;48.234;13.006;2023-04-23T05:56:22;15.20;65.80
25616;DHT22;13482;48.234;13.006;2023-04-23T05:58:49;15.20;65.80
25616;DHT22;13482;48.234;13.006;2023-04-23T06:01:17;15.30;65.90
25616;DHT22;13482;48.234;13.006;2023-04-23T06:03:44;15.40;65.80
25616;DHT22;13482;48.234;13.006;2023-04-23T06:06:12;15.50;66.00
25616;DHT22;13482;48.234;13.006;2023-04-23T06:08:39;15.60;66.00
25616;DHT22;13482;48.234;13.006;2023-04-23T06:11:07;15.70;66.10
25616;DHT22;13482;48.234;13.006;2023-04-23T06:13:34;15.80;66.00
25616;DHT22;13482;48.234;13.006;2023-04-23T06:16:09;15.90;66.00
25616;DHT22;13482;48.234;13.006;2023-04-23T06:18:36;16.10;65.90
25616;DHT22;13482;48.234;13.006;2023-04-23T06:21:04;16.20;66.10
25616;DHT22;13482;48.234;13.006;2023-04-23T06:23:33;16.40;66.10
25616;DHT22;13482;48.234;13.006;2023-04-23T06:26:00;16.50;66.00
25616;DHT22;13482;48.234;13.006;2023-04-23T06:28:27;16.70;66.00
25616;DHT22;13482;48.234;13.006;2023-04-23T06:30:54;16.90;65.90
25616;DHT22;13482;48.234;13.006;2023-04-23T06:33:22;17.00;65.80
25616;DHT22;13482;48.234;13.006;2023-04-23T06:35:49;17.20;65.80
25616;DHT22;13482;48.234;13.006;2023-04-23T06:38:16;17.40;65.70
25616;DHT22;13482;48.234;13.006;2023-04-23T06:40:44;17.60;65.80
25616;DHT22;13482;48.234;13.006;2023-04-23T06:43:12;17.70;66.00
25616;DHT22;13482;48.234;13.006;2023-04-23T06:45:40;18.00;66.10
25616;DHT22;13482;48.234;13.006;2023-04-23T06:48:07;18.20;65.90
25616;DHT22;13482;48.234;13.006;2023-04-23T06:50:34;18.40;65.40
25616;DHT22;13482;48.234;13.006;2023-04-23T06:53:01;18.60;65.00
25616;DHT22;13482;48.234;13.006;2023-04-23T06:55:28;18.70;64.80
25616;DHT22;13482;48.234;13.006;2023-04-23T06:57:56;18.90;64.70
25616;DHT22;13482;48.234;13.006;2023-04-23T07:00:23;19.00;64.40
25616;DHT22;13482;48.234;13.006;2023-04-23T07:02:50;19.10;64.10
25616;DHT22;13482;48.234;13.006;2023-04-23T07:05:18;19.20;63.90
25616;DHT22;13482;48.234;13.006;2023-04-23T07:07:45;19.30;63.60
25616;DHT22;13482;48.234;13.006;2023-04-23T07:10:12;19.30;63.40
25616;DHT22;13482;48.234;13.006;2023-04-23T07:12:43;19.30;63.30
25616;DHT22;13482;48.234;13.006;2023-04-23T07:15:11;19.40;63.30
25616;DHT22;13482;48.234;13.006;2023-04-23T07:17:38;19.40;63.10
25616;DHT22;13482;48.234;13.006;2023-04-23T07:20:05;19.40;62.80
25616;DHT22;13482;48.234;13.006;2023-04-23T07:22:34;19.40;62.70
25616;DHT22;13482;48.234;13.006;2023-04-23T07:25:01;19.40;62.70
25616;DHT22;13482;48.234;13.006;2023-04-23T07:27:30;19.40;62.70
25616;DHT22;13482;48.234;13.006;2023-04-23T07:29:57;19.40;62.70
25616;DHT22;13482;48.234;13.006;2023-04-23T07:32:24;19.40;62.80
25616;DHT22;13482;48.234;13.006;2023-04-23T07:34:54;19.40;62.80
25616;DHT22;13482;48.234;13.006;2023-04-23T07:37:22;19.40;62.80
25616;DHT22;13482;48.234;13.006;2023-04-23T07:39:49;19.50;62.80
25616;DHT22;13482;48.234;13.006;2023-04-23T07:42:16;19.50;62.80
25616;DHT22;13482;48.234;13.006;2023-04-23T07:44:43;19.50;62.80
25616;DHT22;13482;48.234;13.006;2023-04-23T07:47:10;19.60;62.80
25616;DHT22;13482;48.234;13.006;2023-04-23T07:49:37;19.70;62.70
25616;DHT22;13482;48.234;13.006;2023-04-23T07:52:05;19.70;62.80
25616;DHT22;13482;48.234;13.006;2023-04-23T07:54:32;19.80;62.80
25616;DHT22;13482;48.234;13.006;2023-04-23T07:56:59;19.90;62.80
25616;DHT22;13482;48.234;13.006;2023-04-23T07:59:26;19.90;62.50
25616;DHT22;13482;48.234;13.006;2023-04-23T08:01:55;20.00;62.50
25616;DHT22;13482;48.234;13.006;2023-04-23T08:04:22;20.10;62.50
25616;DHT22;13482;48.234;13.006;2023-04-23T08:06:50;20.10;62.40
25616;DHT22;13482;48.234;13.006;2023-04-23T08:09:17;20.20;62.40
25616;DHT22;13482;48.234;13.006;2023-04-23T08:11:44;20.20;61.90
25616;DHT22;13482;48.234;13.006;2023-04-23T08:14:11;20.20;61.90
25616;DHT22;13482;48.234;13.006;2023-04-23T08:16:39;20.30;61.80
25616;DHT22;13482;48.234;13.006;2023-04-23T08:19:06;20.30;61.90
25616;DHT22;13482;48.234;13.006;2023-04-23T08:21:33;20.30;61.90
25616;DHT22;13482;48.234;13.006;2023-04-23T08:24:01;20.30;61.90
25616;DHT22;13482;48.234;13.006;2023-04-23T08:26:32;20.40;62.10
25616;DHT22;13482;48.234;13.006;2023-04-23T08:28:59;20.40;62.30
25616;DHT22;13482;48.234;13.006;2023-04-23T08:31:26;20.50;62.30
25616;DHT22;13482;48.234;13.006;2023-04-23T08:33:54;20.50;61.90
25616;DHT22;13482;48.234;13.006;2023-04-23T08:36:22;20.60;61.90
25616;DHT22;13482;48.234;13.006;2023-04-23T08:38:50;20.60;61.70
25616;DHT22;13482;48.234;13.006;2023-04-23T08:41:17;20.60;61.40
25616;DHT22;13482;48.234;13.006;2023-04-23T08:46:42;20.70;61.30
25616;DHT22;13482;48.234;13.006;2023-04-23T08:49:14;20.70;61.40
25616;DHT22;13482;48.234;13.006;2023-04-23T08:54:25;20.80;61.10
25616;DHT22;13482;48.234;13.006;2023-04-23T08:56:55;20.80;61.00
25616;DHT22;13482;48.234;13.006;2023-04-23T08:59:30;20.80;61.10
25616;DHT22;13482;48.234;13.006;2023-04-23T09:01:58;20.80;61.00
25616;DHT22;13482;48.234;13.006;2023-04-23T09:04:28;20.80;61.00
25616;DHT22;13482;48.234;13.006;2023-04-23T09:06:57;20.70;61.00
25616;DHT22;13482;48.234;13.006;2023-04-23T09:09:26;20.60;61.00
25616;DHT22;13482;48.234;13.006;2023-04-23T09:11:55;20.60;61.20
25616;DHT22;13482;48.234;13.006;2023-04-23T09:14:23;20.50;61.30
25616;DHT22;13482;48.234;13.006;2023-04-23T09:16:52;20.30;61.50
25616;DHT22;13482;48.234;13.006;2023-04-23T09:19:19;20.20;61.60
25616;DHT22;13482;48.234;13.006;2023-04-23T09:21:46;20.10;61.60
25616;DHT22;13482;48.234;13.006;2023-04-23T09:24:13;20.10;61.80
25616;DHT22;13482;48.234;13.006;2023-04-23T09:26:45;20.10;62.00
25616;DHT22;13482;48.234;13.006;2023-04-23T09:29:19;20.10;62.20
25616;DHT22;13482;48.234;13.006;2023-04-23T09:31:50;20.20;62.50
25616;DHT22;13482;48.234;13.006;2023-04-23T09:34:23;20.20;62.10
25616;DHT22;13482;48.234;13.006;2023-04-23T09:36:52;20.20;61.90
25616;DHT22;13482;48.234;13.006;2023-04-23T09:39:23;20.20;62.10
25616;DHT22;13482;48.234;13.006;2023-04-23T09:41:52;20.30;62.30
25616;DHT22;13482;48.234;13.006;2023-04-23T09:44:21;20.30;62.40
25616;DHT22;13482;48.234;13.006;2023-04-23T09:46:49;20.40;62.30
25616;DHT22;13482;48.234;13.006;2023-04-23T09:49:16;20.50;62.10
25616;DHT22;13482;48.234;13.006;2023-04-23T09:51:47;20.60;62.10
25616;DHT22;13482;48.234;13.006;2023-04-23T09:54:20;20.70;61.80
25616;DHT22;13482;48.234;13.006;2023-04-23T09:56:53;20.80;61.80
25616;DHT22;13482;48.234;13.006;2023-04-23T09:59:27;20.90;61.70
25616;DHT22;13482;48.234;13.006;2023-04-23T10:02:11;21.00;61.70
25616;DHT22;13482;48.234;13.006;2023-04-23T10:04:38;21.10;61.60
25616;DHT22;13482;48.234;13.006;2023-04-23T10:07:06;21.10;61.60
25616;DHT22;13482;48.234;13.006;2023-04-23T10:09:45;21.20;61.50
25616;DHT22;13482;48.234;13.006;2023-04-23T10:12:13;21.30;61.40
25616;DHT22;13482;48.234;13.006;2023-04-23T10:14:45;21.40;61.30
25616;DHT22;13482;48.234;13.006;2023-04-23T10:17:15;21.40;61.10
25616;DHT22;13482;48.234;13.006;2023-04-23T10:19:43;21.50;60.90
25616;DHT22;13482;48.234;13.006;2023-04-23T10:22:12;21.60;60.70
25616;DHT22;13482;48.234;13.006;2023-04-23T10:24:44;21.60;60.50
25616;DHT22;13482;48.234;13.006;2023-04-23T10:27:15;21.60;60.30
25616;DHT22;13482;48.234;13.006;2023-04-23T10:30:04;21.50;60.40
25616;DHT22;13482;48.234;13.006;2023-04-23T10:32:32;21.50;60.60
25616;DHT22;13482;48.234;13.006;2023-04-23T10:35:00;21.50;60.60
25616;DHT22;13482;48.234;13.006;2023-04-23T10:37:28;21.50;60.50
25616;DHT22;13482;48.234;13.006;2023-04-23T10:40:00;21.50;60.60
25616;DHT22;13482;48.234;13.006;2023-04-23T10:42:34;21.50;60.40
25616;DHT22;13482;48.234;13.006;2023-04-23T10:45:11;21.40;60.50
25616;DHT22;13482;48.234;13.006;2023-04-23T10:47:52;21.40;60.80
25616;DHT22;13482;48.234;13.006;2023-04-23T10:50:31;21.30;60.80
25616;DHT22;13482;48.234;13.006;2023-04-23T10:53:02;21.20;60.90
25616;DHT22;13482;48.234;13.006;2023-04-23T10:55:30;21.20;60.70
25616;DHT22;13482;48.234;13.006;2023-04-23T10:58:01;21.10;60.80
25616;DHT22;13482;48.234;13.006;2023-04-23T11:00:53;21.10;60.90
25616;DHT22;13482;48.234;13.006;2023-04-23T11:03:38;21.10;61.00
25616;DHT22;13482;48.234;13.006;2023-04-23T11:07:04;21.20;61.20
25616;DHT22;13482;48.234;13.006;2023-04-23T11:09:37;21.30;61.10
25616;DHT22;13482;48.234;13.006;2023-04-23T11:12:29;21.40;61.10
25616;DHT22;13482;48.234;13.006;2023-04-23T11:14:58;21.50;61.30
25616;DHT22;13482;48.234;13.006;2023-04-23T11:20:20;21.70;61.20
25616;DHT22;13482;48.234;13.006;2023-04-23T11:22:49;21.80;60.80
25616;DHT22;13482;48.234;13.006;2023-04-23T11:25:22;21.90;61.00
25616;DHT22;13482;48.234;13.006;2023-04-23T11:27:55;22.00;61.00
25616;DHT22;13482;48.234;13.006;2023-04-23T11:30:30;22.20;61.10
25616;DHT22;13482;48.234;13.006;2023-04-23T11:32:58;22.30;60.90
25616;DHT22;13482;48.234;13.006;2023-04-23T11:35:27;22.50;61.00
25616;DHT22;13482;48.234;13.006;2023-04-23T11:37:56;22.60;60.90
25616;DHT22;13482;48.234;13.006;2023-04-23T11:40:23;22.80;60.70
25616;DHT22;13482;48.234;13.006;2023-04-23T11:42:52;22.90;60.70
25616;DHT22;13482;48.234;13.006;2023-04-23T11:45:24;23.00;60.50
25616;DHT22;13482;48.234;13.006;2023-04-23T11:47:56;23.20;59.50
25616;DHT22;13482;48.234;13.006;2023-04-23T11:50:27;23.30;60.00
25616;DHT22;13482;48.234;13.006;2023-04-23T11:53:08;23.40;59.70
25616;DHT22;13482;48.234;13.006;2023-04-23T11:55:36;23.40;59.70
25616;DHT22;13482;48.234;13.006;2023-04-23T11:58:04;23.50;59.60
25616;DHT22;13482;48.234;13.006;2023-04-23T12:00:31;23.60;59.30
25616;DHT22;13482;48.234;13.006;2023-04-23T12:03:02;23.60;59.20
25616;DHT22;13482;48.234;13.006;2023-04-23T12:05:38;23.70;59.40
25616;DHT22;13482;48.234;13.006;2023-04-23T12:10:53;23.80;59.20
25616;DHT22;13482;48.234;13.006;2023-04-23T12:13:23;23.90;58.80
25616;DHT22;13482;48.234;13.006;2023-04-23T12:15:59;23.90;58.70
25616;DHT22;13482;48.234;13.006;2023-04-23T12:18:33;23.90;58.50
25616;DHT22;13482;48.234;13.006;2023-04-23T12:21:11;23.90;58.30
25616;DHT22;13482;48.234;13.006;2023-04-23T12:23:40;23.90;58.40
25616;DHT22;13482;48.234;13.006;2023-04-23T12:26:12;23.90;58.50
25616;DHT22;13482;48.234;13.006;2023-04-23T12:28:52;23.90;58.60
25616;DHT22;13482;48.234;13.006;2023-04-23T12:31:23;24.00;58.60
25616;DHT22;13482;48.234;13.006;2023-04-23T12:34:05;24.10;58.80
25616;DHT22;13482;48.234;13.006;2023-04-23T12:36:35;24.30;58.30
25616;DHT22;13482;48.234;13.006;2023-04-23T12:39:29;24.40;59.00
25616;DHT22;13482;48.234;13.006;2023-04-23T12:41:59;24.60;58.10
25616;DHT22;13482;48.234;13.006;2023-04-23T12:44:32;24.70;58.90
25616;DHT22;13482;48.234;13.006;2023-04-23T12:47:02;24.90;58.10
25616;DHT22;13482;48.234;13.006;2023-04-23T12:49:31;25.00;57.80
25616;DHT22;13482;48.234;13.006;2023-04-23T12:52:01;25.00;57.80
25616;DHT22;13482;48.234;13.006;2023-04-23T12:54:34;25.10;57.60
25616;DHT22;13482;48.234;13.006;2023-04-23T12:57:04;25.10;57.70
25616;DHT22;13482;48.234;13.006;2023-04-23T12:59:33;25.20;57.20
25616;DHT22;13482;48.234;13.006;2023-04-23T13:02:00;25.20;56.90
25616;DHT22;13482;48.234;13.006;2023-04-23T13:04:33;25.10;56.80
25616;DHT22;13482;48.234;13.006;2023-04-23T13:07:02;25.10;56.90
25616;DHT22;13482;48.234;13.006;2023-04-23T13:09:29;25.10;57.00
25616;DHT22;13482;48.234;13.006;2023-04-23T13:11:56;25.10;57.10
25616;DHT22;13482;48.234;13.006;2023-04-23T13:14:26;25.10;57.30
25616;DHT22;13482;48.234;13.006;2023-04-23T13:16:54;25.20;57.30
25616;DHT22;13482;48.234;13.006;2023-04-23T13:19:22;25.20;56.70
25616;DHT22;13482;48.234;13.006;2023-04-23T13:21:49;25.30;56.90
25616;DHT22;13482;48.234;13.006;2023-04-23T13:24:16;25.30;57.10
25616;DHT22;13482;48.234;13.006;2023-04-23T13:26:43;25.40;57.40
25616;DHT22;13482;48.234;13.006;2023-04-23T13:29:10;25.50;57.30
25616;DHT22;13482;48.234;13.006;2023-04-23T13:31:38;25.70;57.30
25616;DHT22;13482;48.234;13.006;2023-04-23T13:34:05;25.80;57.30
25616;DHT22;13482;48.234;13.006;2023-04-23T13:36:32;26.00;57.20
25616;DHT22;13482;48.234;13.006;2023-04-23T13:38:59;26.10;57.10
25616;DHT22;13482;48.234;13.006;2023-04-23T13:41:26;26.20;57.00
25616;DHT22;13482;48.234;13.006;2023-04-23T13:43:53;26.40;56.70
25616;DHT22;13482;48.234;13.006;2023-04-23T13:46:20;26.50;56.60
25616;DHT22;13482;48.234;13.006;2023-04-23T13:48:47;26.60;56.40
25616;DHT22;13482;48.234;13.006;2023-04-23T13:51:14;26.70;56.30
25616;DHT22;13482;48.234;13.006;2023-04-23T13:54:00;26.90;56.00
25616;DHT22;13482;48.234;13.006;2023-04-23T13:56:27;27.00;55.60
25616;DHT22;13482;48.234;13.006;2023-04-23T13:58:57;27.10;55.00
25616;DHT22;13482;48.234;13.006;2023-04-23T14:01:32;27.10;54.90
25616;DHT22;13482;48.234;13.006;2023-04-23T14:03:59;27.10;55.00
25616;DHT22;13482;48.234;13.006;2023-04-23T14:06:26;27.10;55.10
25616;DHT22;13482;48.234;13.006;2023-04-23T14:08:54;27.20;55.30
25616;DHT22;13482;48.234;13.006;2023-04-23T14:11:21;27.30;55.50
25616;DHT22;13482;48.234;13.006;2023-04-23T14:13:48;27.40;55.20
25616;DHT22;13482;48.234;13.006;2023-04-23T14:16:15;27.50;55.00
25616;DHT22;13482;48.234;13.006;2023-04-23T14:18:43;27.50;54.90
25616;DHT22;13482;48.234;13.006;2023-04-23T14:21:10;27.60;54.70
25616;DHT22;13482;48.234;13.006;2023-04-23T14:23:48;27.70;54.60
25616;DHT22;13482;48.234;13.006;2023-04-23T14:26:33;27.70;54.40
25616;DHT22;13482;48.234;13.006;2023-04-23T14:31:50;27.80;54.10
25616;DHT22;13482;48.234;13.006;2023-04-23T14:34:18;27.90;53.80
25616;DHT22;13482;48.234;13.006;2023-04-23T14:36:45;27.90;53.60
25616;DHT22;13482;48.234;13.006;2023-04-23T14:39:15;27.80;53.70
25616;DHT22;13482;48.234;13.006;2023-04-23T14:41:43;27.80;54.20
25616;DHT22;13482;48.234;13.006;2023-04-23T14:44:10;27.90;54.10
25616;DHT22;13482;48.234;13.006;2023-04-23T14:46:37;27.90;54.00
25616;DHT22;13482;48.234;13.006;2023-04-23T14:49:05;28.00;53.90
25616;DHT22;13482;48.234;13.006;2023-04-23T14:51:32;28.00;53.80
25616;DHT22;13482;48.234;13.006;2023-04-23T14:54:00;28.10;53.80
25616;DHT22;13482;48.234;13.006;2023-04-23T14:56:27;28.10;53.90
25616;DHT22;13482;48.234;13.006;2023-04-23T14:58:55;28.20;53.70
25616;DHT22;13482;48.234;13.006;2023-04-23T15:01:22;28.20;53.80
25616;DHT22;13482;48.234;13.006;2023-04-23T15:03:51;28.30;53.60
25616;DHT22;13482;48.234;13.006;2023-04-23T15:06:19;28.40;53.20
25616;DHT22;13482;48.234;13.006;2023-04-23T15:08:47;28.40;53.10
25616;DHT22;13482;48.234;13.006;2023-04-23T15:11:14;28.50;53.20
25616;DHT22;13482;48.234;13.006;2023-04-23T15:16:42;28.60;53.20
25616;DHT22;13482;48.234;13.006;2023-04-23T15:19:15;28.70;53.30
25616;DHT22;13482;48.234;13.006;2023-04-23T15:21:44;28.90;53.00
25616;DHT22;13482;48.234;13.006;2023-04-23T15:24:12;29.00;53.00
25616;DHT22;13482;48.234;13.006;2023-04-23T15:26:41;29.10;52.60
25616;DHT22;13482;48.234;13.006;2023-04-23T15:29:08;29.20;52.40
25616;DHT22;13482;48.234;13.006;2023-04-23T15:31:36;29.30;52.50
25616;DHT22;13482;48.234;13.006;2023-04-23T15:34:04;29.40;52.60
25616;DHT22;13482;48.234;13.006;2023-04-23T15:36:35;29.50;52.50
25616;DHT22;13482;48.234;13.006;2023-04-23T15:39:04;29.60;52.30
25616;DHT22;13482;48.234;13.006;2023-04-23T15:41:33;29.80;52.10
25616;DHT22;13482;48.234;13.006;2023-04-23T15:44:08;29.90;51.60